Time;durP1;ratioP1;P1;durP2;ratioP2;P2;SDS_P1;SDS_P2;PMS_P1;PMS_P2;Temp;Humidity;BMP_temperature;BMP_pressure;BME280_temperature;BME280_humidity;BME280_pressure;Samples;Min_cycle;Max_cycle;Signal;HPM_P1;HPM_P2
2023/07/10 00:01:33;;;;;;;7.03;4.15;;;;;;;;;;10324434;28;20037;-61
2023/07/10 00:06:34;;;;;;;5.15;3.75;;;;;;;;;;10320013;28;20022;-61
2023/07/10 00:11:35;;;;;;;5.38;4.00;;;;;;;;;;10325144;28;20046;-61
2023/07/10 00:16:35;;;;;;;4.95;4.05;;;;;;;;;;10317142;28;20069;-61
2023/07/10 00:21:36;;;;;;;5.07;3.47;;;;;;;;;;10327093;28;20023;-60
2023/07/10 00:26:37;;;;;;;5.90;3.65;;;;;;;;;;10323120;28;20023;-61
2023/07/10 00:31:39;;;;;;;7.28;3.65;;;;;;;;;;10328065;28;20050;-61
2023/07/10 00:36:41;;;;;;;4.32;3.28;;;;;;;;;;10329349;28;20030;-60
2023/07/10 00:41:43;;;;;;;5.63;3.47;;;;;;;;;;10328218;28;20373;-60
2023/07/10 00:46:54;;;;;;;3.92;3.45;;;;;;;;;;10327982;28;20034;-60
2023/07/10 00:52:12;;;;;;;4.82;3.63;;;;;;;;;;10327220;28;20034;-60
2023/07/10 00:57:33;;;;;;;4.35;3.15;;;;;;;;;;10325495;28;20027;-60
2023/07/10 01:02:33;;;;;;;4.18;3.30;;;;;;;;;;10324713;28;20044;-61
2023/07/10 01:07:46;;;;;;;4.85;3.63;;;;;;;;;;10334423;28;20030;-61
2023/07/10 01:12:47;;;;;;;4.30;3.33;;;;;;;;;;10325326;28;20066;-61
2023/07/10 01:17:48;;;;;;;6.63;3.80;;;;;;;;;;10326708;28;20026;-60
2023/07/10 01:22:49;;;;;;;3.58;3.20;;;;;;;;;;10317703;28;20112;-60
2023/07/10 01:27:50;;;;;;;5.03;3.38;;;;;;;;;;10329148;28;20077;-60
2023/07/10 01:32:52;;;;;;;4.82;3.17;;;;;;;;;;10327439;28;20050;-61
2023/07/10 01:37:53;;;;;;;4.05;3.60;;;;;;;;;;10317949;28;20027;-61
2023/07/10 01:42:58;;;;;;;6.28;3.17;;;;;;;;;;10326323;28;20030;-60
2023/07/10 01:47:59;;;;;;;5.75;3.40;;;;;;;;;;10303871;28;20031;-61
2023/07/10 01:52:59;;;;;;;4.57;3.15;;;;;;;;;;10324065;28;20037;-61
2023/07/10 01:58:00;;;;;;;4.80;3.00;;;;;;;;;;10326959;28;20162;-60
2023/07/10 02:03:00;;;;;;;3.28;2.90;;;;;;;;;;10325083;28;20026;-61
2023/07/10 02:08:01;;;;;;;4.63;3.22;;;;;;;;;;10311699;28;20097;-60
2023/07/10 02:13:02;;;;;;;3.08;2.78;;;;;;;;;;10302722;28;20035;-60
2023/07/10 02:18:02;;;;;;;3.35;3.05;;;;;;;;;;10316058;28;20383;-61
2023/07/10 02:23:03;;;;;;;5.97;3.40;;;;;;;;;;10309949;28;20034;-61
2023/07/10 02:28:04;;;;;;;3.15;2.85;;;;;;;;;;10315223;28;20022;-61
2023/07/10 02:33:05;;;;;;;6.75;3.15;;;;;;;;;;10321721;28;20133;-61
2023/07/10 02:38:07;;;;;;;3.28;2.90;;;;;;;;;;10321596;28;20044;-62
2023/07/10 02:43:08;;;;;;;3.28;2.97;;;;;;;;;;10313134;28;20085;-61
2023/07/10 02:48:09;;;;;;;3.60;2.85;;;;;;;;;;10304975;28;20084;-61
2023/07/10 02:53:10;;;;;;;3.90;3.03;;;;;;;;;;10311000;28;20038;-61
2023/07/10 02:58:11;;;;;;;4.15;3.03;;;;;;;;;;10311766;28;20464;-61
2023/07/10 03:03:12;;;;;;;3.50;3.20;;;;;;;;;;10312637;28;20110;-62
2023/07/10 03:08:13;;;;;;;3.53;2.83;;;;;;;;;;10323931;28;20030;-61
2023/07/10 03:13:14;;;;;;;3.08;2.78;;;;;;;;;;10299259;28;20517;-60
2023/07/10 03:18:14;;;;;;;4.30;2.80;;;;;;;;;;10310014;28;20470;-61
2023/07/10 03:23:15;;;;;;;3.35;2.90;;;;;;;;;;10324793;28;20026;-60
2023/07/10 03:28:16;;;;;;;2.70;2.50;;;;;;;;;;10312046;28;20079;-60
2023/07/10 03:33:17;;;;;;;3.03;2.67;;;;;;;;;;10322869;28;20046;-60
2023/07/10 03:38:18;;;;;;;4.05;2.92;;;;;;;;;;10323166;28;20054;-60
2023/07/10 03:43:19;;;;;;;3.42;2.63;;;;;;;;;;10323637;28;20525;-60
2023/07/10 03:48:20;;;;;;;3.00;2.80;;;;;;;;;;10323399;28;20034;-61
2023/07/10 03:53:21;;;;;;;3.08;2.58;;;;;;;;;;10323670;28;20061;-61
2023/07/10 03:58:28;;;;;;;5.40;2.70;;;;;;;;;;10322975;28;20100;-61
2023/07/10 04:03:32;;;;;;;3.25;2.30;;;;;;;;;;10323021;28;20046;-61
2023/07/10 04:08:40;;;;;;;3.28;2.95;;;;;;;;;;10326365;28;20116;-61
2023/07/10 04:13:41;;;;;;;3.10;2.60;;;;;;;;;;10324510;28;20094;-61
2023/07/10 04:18:42;;;;;;;3.47;2.60;;;;;;;;;;10320806;28;20405;-61
2023/07/10 04:23:44;;;;;;;2.65;2.40;;;;;;;;;;10321758;28;20455;-61
2023/07/10 04:28:47;;;;;;;2.53;2.33;;;;;;;;;;10330106;28;20030;-61
2023/07/10 04:33:57;;;;;;;2.72;2.53;;;;;;;;;;10309720;28;20054;-62
2023/07/10 04:39:12;;;;;;;2.95;2.75;;;;;;;;;;10316588;28;20086;-61
2023/07/10 04:44:21;;;;;;;2.58;2.38;;;;;;;;;;10320839;28;20076;-62
2023/07/10 04:49:29;;;;;;;5.97;2.88;;;;;;;;;;10308108;28;20049;-61
2023/07/10 04:54:41;;;;;;;4.40;2.67;;;;;;;;;;10328066;28;20049;-64
2023/07/10 04:59:51;;;;;;;4.25;3.10;;;;;;;;;;10329307;28;20038;-63
2023/07/10 05:04:59;;;;;;;4.15;2.70;;;;;;;;;;10328940;28;20432;-61
2023/07/10 05:10:14;;;;;;;2.88;2.55;;;;;;;;;;10324522;28;20022;-64
2023/07/10 05:15:23;;;;;;;3.17;2.50;;;;;;;;;;10320962;28;20048;-62
2023/07/10 05:20:36;;;;;;;3.67;2.58;;;;;;;;;;10321645;28;20038;-62
2023/07/10 05:25:37;;;;;;;2.78;2.55;;;;;;;;;;10321507;28;20031;-62
2023/07/10 05:30:38;;;;;;;10.68;3.40;;;;;;;;;;10325015;28;20082;-63
2023/07/10 05:35:49;;;;;;;4.38;2.38;;;;;;;;;;10315399;28;20501;-62
2023/07/10 05:40:57;;;;;;;5.68;2.72;;;;;;;;;;10321312;28;20041;-63
2023/07/10 05:46:09;;;;;;;3.83;2.58;;;;;;;;;;10319137;28;20034;-62
2023/07/10 05:51:10;;;;;;;4.40;2.60;;;;;;;;;;10321437;28;20088;-63
2023/07/10 05:56:10;;;;;;;11.05;6.68;;;;;;;;;;10322569;28;20030;-61
2023/07/10 06:01:12;;;;;;;18.48;7.15;;;;;;;;;;10316201;28;20092;-61
2023/07/10 06:06:20;;;;;;;13.93;7.63;;;;;;;;;;10325020;28;20023;-60
2023/07/10 06:11:21;;;;;;;17.05;7.18;;;;;;;;;;10309855;28;20034;-61
2023/07/10 06:16:21;;;;;;;31.00;8.57;;;;;;;;;;10315498;28;20034;-63
2023/07/10 06:21:22;;;;;;;18.38;8.23;;;;;;;;;;10322176;28;20038;-61
2023/07/10 06:26:23;;;;;;;18.45;8.25;;;;;;;;;;10324407;28;20029;-61
2023/07/10 06:31:23;;;;;;;23.60;7.45;;;;;;;;;;10323842;28;20396;-61
2023/07/10 06:36:24;;;;;;;16.40;7.40;;;;;;;;;;10325279;28;20363;-62
2023/07/10 06:41:27;;;;;;;24.58;8.43;;;;;;;;;;10325059;28;20129;-60
2023/07/10 06:46:28;;;;;;;18.33;7.20;;;;;;;;;;10325565;28;20374;-60
2023/07/10 06:51:29;;;;;;;19.83;7.30;;;;;;;;;;10324520;28;20027;-60
2023/07/10 06:56:30;;;;;;;21.20;7.47;;;;;;;;;;10324189;28;20057;-60
2023/07/10 07:01:31;;;;;;;14.48;7.38;;;;;;;;;;10310442;28;20065;-60
2023/07/10 07:06:32;;;;;;;15.90;6.88;;;;;;;;;;10289478;28;20031;-60
2023/07/10 07:11:32;;;;;;;13.60;7.40;;;;;;;;;;10299964;28;20027;-60
2023/07/10 07:16:33;;;;;;;18.08;7.32;;;;;;;;;;10300386;28;20455;-60
2023/07/10 07:21:33;;;;;;;25.02;6.53;;;;;;;;;;10320170;28;20410;-60
2023/07/10 07:26:35;;;;;;;11.40;6.68;;;;;;;;;;10323856;28;20367;-61
2023/07/10 07:31:39;;;;;;;11.55;6.22;;;;;;;;;;10322022;28;20054;-60
2023/07/10 07:36:40;;;;;;;14.18;6.93;;;;;;;;;;10321761;28;20590;-61
2023/07/10 07:41:40;;;;;;;13.98;6.65;;;;;;;;;;10322981;28;20185;-60
2023/07/10 07:46:41;;;;;;;13.80;6.75;;;;;;;;;;10315855;28;20088;-61
2023/07/10 07:51:43;;;;;;;11.93;6.35;;;;;;;;;;10328258;28;20375;-61
2023/07/10 07:56:44;;;;;;;13.20;6.60;;;;;;;;;;10328038;28;20026;-60
2023/07/10 08:01:46;;;;;;;11.82;6.90;;;;;;;;;;10328418;28;20482;-61
2023/07/10 08:06:48;;;;;;;10.60;6.18;;;;;;;;;;10329118;28;20097;-60
2023/07/10 08:11:49;;;;;;;11.82;6.75;;;;;;;;;;10327791;28;20244;-61
2023/07/10 08:16:50;;;;;;;10.35;6.57;;;;;;;;;;10327894;28;20063;-62
2023/07/10 08:21:50;;;;;;;10.38;6.15;;;;;;;;;;10326637;28;20498;-61
2023/07/10 08:26:51;;;;;;;16.20;5.90;;;;;;;;;;10328131;28;20508;-60
2023/07/10 08:31:57;;;;;;;10.93;5.97;;;;;;;;;;10289275;28;1123239;-60
2023/07/10 08:37:01;;;;;;;14.75;7.03;;;;;;;;;;10329996;28;20368;-60
2023/07/10 08:42:11;;;;;;;11.43;6.35;;;;;;;;;;10316954;28;20329;-61
2023/07/10 08:47:21;;;;;;;11.18;6.18;;;;;;;;;;10329474;28;20058;-60
2023/07/10 08:52:36;;;;;;;9.45;5.80;;;;;;;;;;10326846;28;20031;-60
2023/07/10 08:57:40;;;;;;;9.93;6.50;;;;;;;;;;10317373;28;20048;-60
2023/07/10 09:03:00;;;;;;;10.90;6.00;;;;;;;;;;10316587;28;20458;-61
2023/07/10 09:08:10;;;;;;;8.57;6.22;;;;;;;;;;10327890;28;20022;-61
2023/07/10 09:13:31;;;;;;;8.57;6.40;;;;;;;;;;10307899;28;20035;-61
2023/07/10 09:19:11;;;;;;;8.73;5.95;;;;;;;;;;10305526;28;20041;-60
2023/07/10 09:24:19;;;;;;;11.80;5.88;;;;;;;;;;10307879;28;20161;-60
2023/07/10 09:29:33;;;;;;;;;;;;;;;;;;10316898;28;20367;-60
2023/07/10 09:34:35;;;;;;;8.35;6.05;;;;;;;;;;10316514;28;19917;-60
2023/07/10 09:39:35;;;;;;;7.43;6.03;;;;;;;;;;10315400;28;20014;-60
2023/07/10 09:44:43;;;;;;;11.88;6.72;;;;;;;;;;10313406;28;20019;-60
2023/07/10 09:49:53;;;;;;;8.32;6.53;;;;;;;;;;10304770;28;20390;-61
2023/07/10 09:55:07;;;;;;;8.57;6.32;;;;;;;;;;10333547;28;20478;-60
2023/07/10 10:00:16;;;;;;;8.50;5.93;;;;;;;;;;10314590;28;20085;-60
2023/07/10 10:05:19;;;;;;;10.52;6.53;;;;;;;;;;10326129;28;20081;-60
2023/07/10 10:10:32;;;;;;;9.13;6.25;;;;;;;;;;10313016;28;20085;-60
2023/07/10 10:15:38;;;;;;;10.50;6.30;;;;;;;;;;10313273;28;20085;-62
2023/07/10 10:20:40;;;;;;;8.05;6.43;;;;;;;;;;10324807;28;20117;-60
2023/07/10 10:25:45;;;;;;;8.40;6.57;;;;;;;;;;10325547;28;20189;-60
2023/07/10 10:30:52;;;;;;;9.27;6.30;;;;;;;;;;10313539;28;20038;-60
2023/07/10 10:36:18;;;;;;;10.73;6.53;;;;;;;;;;10312557;28;20474;-61
2023/07/10 10:41:18;;;;;;;7.63;6.00;;;;;;;;;;10331579;28;20037;-62
2023/07/10 10:46:26;;;;;;;9.50;5.83;;;;;;;;;;10324785;28;20026;-61
2023/07/10 10:51:30;;;;;;;9.10;6.85;;;;;;;;;;10325493;28;20698;-60
2023/07/10 10:56:47;;;;;;;8.52;6.57;;;;;;;;;;10312658;28;20037;-61
2023/07/10 11:02:11;;;;;;;7.22;6.30;;;;;;;;;;10311932;28;20470;-60
2023/07/10 11:07:21;;;;;;;9.90;6.70;;;;;;;;;;10324342;28;20018;-60
2023/07/10 11:12:29;;;;;;;8.35;6.65;;;;;;;;;;10322465;28;20034;-60
2023/07/10 11:17:29;;;;;;;8.27;6.30;;;;;;;;;;10322226;28;20101;-60
2023/07/10 11:22:31;;;;;;;7.57;5.88;;;;;;;;;;10325426;28;20436;-60
2023/07/10 11:27:32;;;;;;;8.68;6.10;;;;;;;;;;10337748;28;20042;-60
2023/07/10 11:32:54;;;;;;;8.30;6.03;;;;;;;;;;10323463;28;20046;-60
2023/07/10 11:38:03;;;;;;;7.70;6.20;;;;;;;;;;10310211;28;20451;-60
2023/07/10 11:43:26;;;;;;;6.78;5.80;;;;;;;;;;10335119;28;20085;-61
2023/07/10 11:48:40;;;;;;;11.85;5.60;;;;;;;;;;10329861;28;20027;-60
2023/07/10 11:53:41;;;;;;;9.95;6.13;;;;;;;;;;10324744;28;20130;-60
2023/07/10 11:58:41;;;;;;;11.88;6.20;;;;;;;;;;10309984;28;20355;-60
2023/07/10 12:03:42;;;;;;;6.93;6.15;;;;;;;;;;10313185;28;20038;-60
2023/07/10 12:08:46;;;;;;;12.30;6.30;;;;;;;;;;10319901;28;20391;-61
2023/07/10 12:13:47;;;;;;;8.25;6.45;;;;;;;;;;10323327;28;20030;-60
2023/07/10 12:18:47;;;;;;;13.38;6.47;;;;;;;;;;10322890;28;20030;-60
2023/07/10 12:23:59;;;;;;;6.45;5.55;;;;;;;;;;10323576;28;20046;-60
2023/07/10 12:29:02;;;;;;;6.85;5.75;;;;;;;;;;10332463;28;20038;-60
2023/07/10 12:34:03;;;;;;;7.70;5.70;;;;;;;;;;10328247;28;20069;-60
2023/07/10 12:39:07;;;;;;;10.70;6.38;;;;;;;;;;10320347;28;20065;-60
2023/07/10 12:44:25;;;;;;;7.13;6.15;;;;;;;;;;10321303;28;20022;-60
2023/07/10 12:49:30;;;;;;;15.50;6.35;;;;;;;;;;10329219;28;20069;-61
2023/07/10 12:54:46;;;;;;;9.00;6.00;;;;;;;;;;10322136;28;20042;-60
2023/07/10 12:59:48;;;;;;;8.93;6.22;;;;;;;;;;10315059;28;20038;-60
2023/07/10 13:04:58;;;;;;;10.75;6.20;;;;;;;;;;10327832;28;20038;-60
2023/07/10 13:10:18;;;;;;;12.02;6.47;;;;;;;;;;10323205;28;20033;-61
2023/07/10 13:15:36;;;;;;;15.35;6.72;;;;;;;;;;10315102;28;20030;-60
2023/07/10 13:20:38;;;;;;;8.75;6.05;;;;;;;;;;10325478;28;20034;-60
2023/07/10 13:25:39;;;;;;;10.68;6.53;;;;;;;;;;10328068;28;20045;-60
2023/07/10 13:30:39;;;;;;;7.55;5.45;;;;;;;;;;10315704;23;20526;-62
2023/07/10 13:35:40;;;;;;;10.02;6.55;;;;;;;;;;10287321;28;20150;-62
2023/07/10 13:40:40;;;;;;;9.60;6.85;;;;;;;;;;10286296;28;20030;-63
2023/07/10 13:45:42;;;;;;;11.55;5.55;;;;;;;;;;10263165;28;20034;-62
2023/07/10 13:50:48;;;;;;;13.57;6.30;;;;;;;;;;10279289;28;20035;-62
2023/07/10 13:55:50;;;;;;;20.58;6.00;;;;;;;;;;10284054;28;20027;-62
2023/07/10 14:00:57;;;;;;;7.97;5.93;;;;;;;;;;10284795;28;20039;-62
2023/07/10 14:05:58;;;;;;;14.32;7.03;;;;;;;;;;10283223;28;20034;-62
2023/07/10 14:11:00;;;;;;;10.23;5.82;;;;;;;;;;10285393;28;20470;-62
2023/07/10 14:16:06;;;;;;;11.43;6.03;;;;;;;;;;10283151;28;20019;-62
2023/07/10 14:21:10;;;;;;;8.73;5.57;;;;;;;;;;10284193;28;20055;-62
2023/07/10 14:26:22;;;;;;;8.52;5.63;;;;;;;;;;10275148;28;20545;-58
2023/07/10 14:31:23;;;;;;;8.57;5.82;;;;;;;;;;10281383;28;20054;-58
2023/07/10 14:36:26;;;;;;;8.25;5.75;;;;;;;;;;10283911;28;20483;-58
2023/07/10 14:41:28;;;;;;;9.73;5.97;;;;;;;;;;10284575;28;20394;-58
2023/07/10 14:46:35;;;;;;;11.40;5.97;;;;;;;;;;10271999;28;20046;-58
2023/07/10 14:51:36;;;;;;;6.90;5.37;;;;;;;;;;10281107;28;20035;-58
2023/07/10 14:56:36;;;;;;;9.27;5.60;;;;;;;;;;10277039;28;20031;-60
2023/07/10 15:01:37;;;;;;;8.18;5.85;;;;;;;;;;10284224;28;20030;-58
2023/07/10 15:06:41;;;;;;;12.07;6.43;;;;;;;;;;10282568;28;20252;-58
2023/07/10 15:11:41;;;;;;;13.00;6.07;;;;;;;;;;10282123;28;20023;-58
2023/07/10 15:16:43;;;;;;;10.88;5.35;;;;;;;;;;10283400;28;20027;-60
2023/07/10 15:21:44;;;;;;;7.25;4.85;;;;;;;;;;10282006;28;20255;-58
2023/07/10 15:26:44;;;;;;;7.45;5.35;;;;;;;;;;10282362;28;20239;-58
2023/07/10 15:31:49;;;;;;;6.50;5.22;;;;;;;;;;10283590;28;20498;-58
2023/07/10 15:36:50;;;;;;;6.28;4.75;;;;;;;;;;10282546;28;20022;-58
2023/07/10 15:41:51;;;;;;;6.68;5.30;;;;;;;;;;10282022;28;20023;-58
2023/07/10 15:46:51;;;;;;;7.40;5.05;;;;;;;;;;10273571;28;20047;-58
2023/07/10 15:51:54;;;;;;;8.48;5.47;;;;;;;;;;10267652;28;20038;-57
2023/07/10 15:56:55;;;;;;;6.80;4.75;;;;;;;;;;10271251;28;20089;-56
2023/07/10 16:01:55;;;;;;;7.10;4.95;;;;;;;;;;10267149;28;20093;-56
2023/07/10 16:06:56;;;;;;;6.85;4.57;;;;;;;;;;10289678;28;20027;-57
2023/07/10 16:11:56;;;;;;;11.43;4.72;;;;;;;;;;10289757;28;20043;-58
2023/07/10 16:16:57;;;;;;;6.32;4.72;;;;;;;;;;10276133;28;20484;-57
2023/07/10 16:21:58;;;;;;;7.93;5.38;;;;;;;;;;10277997;28;20035;-57
2023/07/10 16:26:58;;;;;;;7.35;5.00;;;;;;;;;;10287552;28;20030;-57
2023/07/10 16:31:59;;;;;;;5.97;4.55;;;;;;;;;;10288412;28;20431;-57
2023/07/10 16:36:59;;;;;;;5.82;4.57;;;;;;;;;;10268246;28;20379;-61
2023/07/10 16:42:00;;;;;;;5.80;4.70;;;;;;;;;;10277209;28;20027;-57
2023/07/10 16:47:01;;;;;;;5.18;4.40;;;;;;;;;;10271165;28;20045;-60
2023/07/10 16:52:01;;;;;;;9.43;4.45;;;;;;;;;;10288513;28;20030;-57
2023/07/10 16:57:04;;;;;;;5.13;4.57;;;;;;;;;;10275621;28;20026;-57
2023/07/10 17:02:22;;;;;;;5.70;4.68;;;;;;;;;;10285390;28;20030;-61
2023/07/10 17:07:22;;;;;;;6.28;4.57;;;;;;;;;;10262218;28;20027;-57
2023/07/10 17:12:23;;;;;;;7.03;5.10;;;;;;;;;;10286344;28;20042;-57
2023/07/10 17:17:24;;;;;;;6.40;4.55;;;;;;;;;;10276722;28;20157;-57
2023/07/10 17:22:32;;;;;;;7.18;5.28;;;;;;;;;;10276539;28;20027;-57
2023/07/10 17:27:33;;;;;;;7.03;5.43;;;;;;;;;;10285515;28;20082;-56
2023/07/10 17:32:34;;;;;;;5.75;4.57;;;;;;;;;;10286899;28;20446;-57
2023/07/10 17:37:34;;;;;;;7.53;4.57;;;;;;;;;;10287598;28;20030;-57
2023/07/10 17:42:36;;;;;;;5.40;4.88;;;;;;;;;;10282056;28;20027;-58
2023/07/10 17:47:36;;;;;;;4.75;4.25;;;;;;;;;;10274336;28;20038;-57
2023/07/10 17:52:37;;;;;;;5.63;4.85;;;;;;;;;;10276127;28;20038;-58
2023/07/10 17:57:38;;;;;;;5.22;4.50;;;;;;;;;;10281476;28;20031;-57
2023/07/10 18:02:44;;;;;;;6.25;4.50;;;;;;;;;;10277007;28;20144;-57
2023/07/10 18:07:45;;;;;;;5.63;4.53;;;;;;;;;;10273023;28;20186;-57
2023/07/10 18:12:46;;;;;;;5.68;4.43;;;;;;;;;;10275721;28;20106;-57
2023/07/10 18:17:47;;;;;;;7.30;4.47;;;;;;;;;;10284418;28;20712;-57
2023/07/10 18:22:48;;;;;;;5.30;4.70;;;;;;;;;;10284954;28;20033;-57
2023/07/10 18:27:49;;;;;;;5.55;4.05;;;;;;;;;;10280586;28;20023;-57
2023/07/10 18:32:50;;;;;;;5.80;4.53;;;;;;;;;;10274317;28;20506;-57
2023/07/10 18:37:50;;;;;;;6.05;4.60;;;;;;;;;;10275617;28;20383;-57
2023/07/10 18:42:51;;;;;;;6.95;3.90;;;;;;;;;;10283679;28;20348;-57
2023/07/10 18:47:52;;;;;;;5.78;3.95;;;;;;;;;;10274602;28;20038;-59
2023/07/10 18:52:52;;;;;;;7.72;4.50;;;;;;;;;;10276308;28;20035;-57
2023/07/10 18:57:54;;;;;;;9.93;4.18;;;;;;;;;;10282085;28;20027;-57
2023/07/10 19:02:55;;;;;;;4.57;3.67;;;;;;;;;;10269946;28;20055;-58
2023/07/10 19:07:55;;;;;;;4.40;3.78;;;;;;;;;;10264465;28;20125;-56
2023/07/10 19:12:57;;;;;;;7.35;3.75;;;;;;;;;;10280495;28;20255;-55
2023/07/10 19:17:58;;;;;;;7.55;3.90;;;;;;;;;;10268021;28;20435;-56
2023/07/10 19:22:58;;;;;;;8.75;4.47;;;;;;;;;;10278184;28;20049;-56
2023/07/10 19:27:59;;;;;;;5.88;4.32;;;;;;;;;;10283631;28;20022;-56
2023/07/10 19:33:00;;;;;;;5.72;3.90;;;;;;;;;;10282804;28;20381;-56
2023/07/10 19:38:00;;;;;;;4.90;3.47;;;;;;;;;;10285044;28;20045;-55
2023/07/10 19:43:01;;;;;;;4.95;4.22;;;;;;;;;;10291088;28;20022;-54
2023/07/10 19:48:02;;;;;;;6.18;3.95;;;;;;;;;;10290688;28;20038;-55
2023/07/10 19:53:15;;;;;;;4.32;3.60;;;;;;;;;;10291548;28;20470;-55
2023/07/10 19:58:24;;;;;;;5.45;4.00;;;;;;;;;;10277282;28;20089;-55
2023/07/10 20:03:32;;;;;;;9.10;3.72;;;;;;;;;;10277825;28;20034;-56
2023/07/10 20:08:34;;;;;;;4.95;3.22;;;;;;;;;;10278953;28;20075;-56
2023/07/10 20:13:35;;;;;;;8.15;3.60;;;;;;;;;;10276129;28;20039;-54
2023/07/10 20:18:36;;;;;;;4.57;3.42;;;;;;;;;;10267603;28;20086;-56
2023/07/10 20:23:37;;;;;;;4.07;3.50;;;;;;;;;;10278063;28;20035;-55
2023/07/10 20:28:43;;;;;;;6.13;4.20;;;;;;;;;;10276302;28;20035;-55
2023/07/10 20:33:45;;;;;;;3.70;3.25;;;;;;;;;;10283682;28;20078;-56
2023/07/10 20:38:48;;;;;;;6.95;3.40;;;;;;;;;;10277180;28;20042;-50
2023/07/10 20:43:49;;;;;;;4.47;3.30;;;;;;;;;;10278422;28;20601;-54
2023/07/10 20:48:50;;;;;;;4.45;2.80;;;;;;;;;;10267801;28;20029;-56
2023/07/10 20:53:52;;;;;;;8.13;3.38;;;;;;;;;;10278981;28;21348;-57
2023/07/10 20:58:55;;;;;;;3.85;3.30;;;;;;;;;;10277011;28;20439;-54
2023/07/10 21:03:57;;;;;;;4.00;3.40;;;;;;;;;;10279406;28;20057;-56
2023/07/10 21:09:00;;;;;;;4.35;3.10;;;;;;;;;;10283607;28;20046;-57
2023/07/10 21:14:01;;;;;;;5.00;3.45;;;;;;;;;;10279755;28;20035;-55
2023/07/10 21:19:21;;;;;;;5.07;3.45;;;;;;;;;;10285747;28;20026;-57
2023/07/10 21:24:23;;;;;;;3.20;2.88;;;;;;;;;;10272329;28;20037;-57
2023/07/10 21:29:24;;;;;;;4.85;3.30;;;;;;;;;;10281774;28;20041;-57
2023/07/10 21:34:25;;;;;;;5.32;3.60;;;;;;;;;;10278324;28;20131;-56
2023/07/10 21:39:27;;;;;;;4.15;2.95;;;;;;;;;;10268505;28;20031;-59
2023/07/10 21:44:27;;;;;;;6.85;3.45;;;;;;;;;;10274942;28;20152;-53
2023/07/10 21:49:28;;;;;;;4.25;3.17;;;;;;;;;;10275054;28;20478;-60
2023/07/10 21:54:28;;;;;;;8.07;3.03;;;;;;;;;;10284845;28;20406;-57
2023/07/10 21:59:34;;;;;;;12.70;3.08;;;;;;;;;;10283967;28;20533;-55
2023/07/10 22:04:35;;;;;;;5.13;3.65;;;;;;;;;;10281941;28;20079;-56
2023/07/10 22:09:35;;;;;;;4.10;3.25;;;;;;;;;;10260297;28;20485;-56
2023/07/10 22:14:36;;;;;;;5.00;3.35;;;;;;;;;;10273948;28;20513;-58
2023/07/10 22:19:36;;;;;;;7.22;3.53;;;;;;;;;;10267676;28;20465;-57
2023/07/10 22:24:37;;;;;;;4.00;3.30;;;;;;;;;;10284573;28;20053;-56
2023/07/10 22:29:38;;;;;;;4.45;3.05;;;;;;;;;;10282301;28;20027;-55
2023/07/10 22:34:39;;;;;;;6.90;3.20;;;;;;;;;;10282229;28;20042;-56
2023/07/10 22:39:39;;;;;;;5.03;3.58;;;;;;;;;;10283053;28;20498;-56
2023/07/10 22:44:40;;;;;;;4.75;3.20;;;;;;;;;;10284759;28;20259;-57
2023/07/10 22:49:41;;;;;;;3.67;3.20;;;;;;;;;;10284425;28;20031;-57
2023/07/10 22:54:41;;;;;;;6.13;3.30;;;;;;;;;;10275561;28;20035;-57
2023/07/10 22:59:42;;;;;;;4.25;3.42;;;;;;;;;;10273859;28;20154;-57
2023/07/10 23:04:42;;;;;;;6.55;3.53;;;;;;;;;;10265848;28;20023;-58
2023/07/10 23:09:43;;;;;;;5.47;3.15;;;;;;;;;;10274075;28;20033;-59
2023/07/10 23:14:44;;;;;;;4.15;3.17;;;;;;;;;;10267539;28;20509;-60
2023/07/10 23:19:44;;;;;;;5.30;3.10;;;;;;;;;;10263375;28;20239;-57
2023/07/10 23:24:45;;;;;;;4.50;2.90;;;;;;;;;;10282602;28;20037;-58
2023/07/10 23:29:46;;;;;;;2.80;2.58;;;;;;;;;;10282435;28;20035;-57
2023/07/10 23:34:46;;;;;;;4.70;3.20;;;;;;;;;;10281453;28;20113;-55
2023/07/10 23:39:47;;;;;;;4.10;2.88;;;;;;;;;;10281524;28;20038;-58
2023/07/10 23:44:47;;;;;;;5.10;3.65;;;;;;;;;;10282437;28;20031;-58
2023/07/10 23:49:48;;;;;;;3.58;3.25;;;;;;;;;;10282818;28;20113;-57
2023/07/10 23:54:51;;;;;;;6.82;3.10;;;;;;;;;;10273286;28;20132;-56
2023/07/10 23:59:51;;;;;;;3.88;3.10;;;;;;;;;;10280423;28;20113;-55
